createdAt,value
2023-05-05T00:01:35.852Z,16.32
2023-05-05T00:04:02.747Z,16.30
2023-05-05T00:06:29.670Z,16.31
2023-05-05T00:08:56.457Z,16.26
2023-05-05T00:11:23.392Z,16.30
2023-05-05T00:13:51.529Z,16.30
2023-05-05T00:16:18.486Z,16.18
2023-05-05T00:18:47.411Z,16.13
2023-05-05T00:21:14.368Z,16.07
2023-05-05T00:23:41.205Z,16.29
2023-05-05T00:26:08.054Z,16.35
2023-05-05T00:28:34.937Z,16.39
2023-05-05T00:31:01.956Z,16.42
2023-05-05T00:33:28.925Z,16.38
2023-05-05T00:35:57.168Z,16.21
2023-05-05T00:38:24.123Z,16.02
2023-05-05T00:40:50.975Z,16.15
2023-05-05T00:43:17.797Z,16.11
2023-05-05T00:45:47.816Z,16.14
2023-05-05T00:48:17.129Z,16.05
2023-05-05T00:50:45.092Z,15.98
2023-05-05T00:53:13.880Z,16.00
2023-05-05T00:55:41.610Z,15.97
2023-05-05T00:58:10.023Z,16.04
2023-05-05T01:00:37.011Z,16.16
2023-05-05T01:03:05.215Z,16.17
2023-05-05T01:05:41.829Z,16.20
2023-05-05T01:08:26.737Z,16.32
2023-05-05T01:10:58.045Z,16.30
2023-05-05T01:13:32.601Z,16.27
2023-05-05T01:16:09.207Z,16.24
2023-05-05T01:18:44.232Z,16.26
2023-05-05T01:21:15.475Z,16.30
2023-05-05T01:24:15.580Z,16.27
2023-05-05T01:26:59.239Z,16.23
2023-05-05T01:29:45.181Z,16.08
2023-05-05T01:32:15.959Z,16.08
2023-05-05T01:34:53.199Z,16.12
2023-05-05T01:37:27.112Z,16.03
2023-05-05T01:39:55.891Z,16.10
2023-05-05T01:42:24.216Z,16.12
2023-05-05T01:44:53.190Z,16.10
2023-05-05T01:47:23.998Z,16.22
2023-05-05T01:49:52.420Z,16.23
2023-05-05T01:52:19.984Z,16.31
2023-05-05T01:54:48.039Z,16.37
2023-05-05T01:57:16.628Z,16.30
2023-05-05T01:59:43.564Z,16.44
2023-05-05T02:02:13.110Z,16.42
2023-05-05T02:04:44.415Z,16.42
2023-05-05T02:07:13.219Z,16.38
2023-05-05T02:09:42.656Z,16.34
2023-05-05T02:12:10.618Z,16.44
2023-05-05T02:14:39.533Z,16.51
2023-05-05T02:17:06.964Z,16.58
2023-05-05T02:19:38.973Z,16.55
2023-05-05T02:22:07.434Z,16.63
2023-05-05T02:24:34.699Z,16.72
2023-05-05T02:27:06.290Z,16.65
2023-05-05T02:29:35.799Z,16.66
2023-05-05T02:32:06.133Z,16.57
2023-05-05T02:34:36.877Z,16.63
2023-05-05T02:37:07.286Z,16.76
2023-05-05T02:39:41.865Z,16.74
2023-05-05T02:42:11.028Z,16.81
2023-05-05T02:44:41.854Z,16.86
2023-05-05T02:47:08.955Z,16.81
2023-05-05T02:49:35.784Z,16.87
2023-05-05T02:52:02.804Z,16.84
2023-05-05T02:54:32.679Z,16.85
2023-05-05T02:57:00.621Z,16.77
2023-05-05T02:59:36.714Z,16.78
2023-05-05T03:02:15.785Z,16.74
2023-05-05T03:04:46.377Z,16.71
2023-05-05T03:07:16.056Z,16.73
2023-05-05T03:09:50.965Z,16.71
2023-05-05T03:12:22.408Z,16.63
2023-05-05T03:14:54.306Z,16.58
2023-05-05T03:17:22.900Z,16.47
2023-05-05T03:19:50.697Z,16.49
2023-05-05T03:22:18.036Z,16.52
2023-05-05T03:24:50.247Z,16.47
2023-05-05T03:27:17.042Z,16.46
2023-05-05T03:29:43.882Z,16.37
2023-05-05T03:32:10.799Z,16.34
2023-05-05T03:34:37.864Z,16.33
2023-05-05T03:37:04.745Z,16.23
2023-05-05T03:39:31.816Z,16.16
2023-05-05T03:42:00.055Z,16.10
2023-05-05T03:44:27.055Z,16.09
2023-05-05T03:46:53.837Z,16.09
2023-05-05T03:49:20.633Z,16.06
2023-05-05T03:51:47.660Z,16.03
2023-05-05T03:54:14.662Z,15.98
2023-05-05T03:56:41.500Z,15.98
2023-05-05T03:59:10.115Z,15.96
2023-05-05T04:01:37.008Z,15.98
2023-05-05T04:04:04.242Z,15.98
2023-05-05T04:06:32.155Z,16.09
2023-05-05T04:08:58.996Z,16.18
2023-05-05T04:11:26.334Z,16.29
2023-05-05T04:13:53.204Z,16.35
2023-05-05T04:16:21.568Z,16.40
2023-05-05T04:18:48.523Z,16.51
2023-05-05T04:21:15.429Z,16.56
2023-05-05T04:23:42.257Z,16.64
2023-05-05T04:26:09.023Z,16.59
2023-05-05T04:28:35.924Z,16.67
2023-05-05T04:31:05.298Z,16.59
2023-05-05T04:33:33.564Z,16.57
2023-05-05T04:36:00.482Z,16.49
2023-05-05T04:38:27.667Z,16.54
2023-05-05T04:40:54.564Z,16.57
2023-05-05T04:43:21.469Z,16.59
2023-05-05T04:45:55.116Z,16.67
2023-05-05T04:48:22.099Z,16.72
2023-05-05T04:50:51.466Z,16.81
2023-05-05T04:53:18.328Z,16.92
2023-05-05T04:55:45.173Z,17.08
2023-05-05T04:58:12.010Z,17.22
2023-05-05T05:00:38.886Z,17.34
2023-05-05T05:03:05.919Z,17.24
2023-05-05T05:05:32.930Z,17.41
2023-05-05T05:08:01.211Z,17.34
2023-05-05T05:10:28.749Z,17.35
2023-05-05T05:12:55.854Z,17.27
2023-05-05T05:15:22.816Z,17.18
2023-05-05T05:17:49.858Z,17.12
2023-05-05T05:20:16.777Z,17.21
2023-05-05T05:22:43.684Z,17.29
2023-05-05T05:25:11.952Z,17.31
2023-05-05T05:27:38.784Z,17.49
2023-05-05T05:30:06.814Z,17.62
2023-05-05T05:32:34.128Z,17.73
2023-05-05T05:35:01.292Z,17.84
2023-05-05T05:37:29.287Z,17.89
2023-05-05T05:39:57.095Z,17.75
2023-05-05T05:42:25.420Z,17.83
2023-05-05T05:44:52.273Z,17.95
2023-05-05T05:47:19.228Z,17.95
2023-05-05T05:49:46.245Z,17.88
2023-05-05T05:52:13.165Z,17.95
2023-05-05T05:54:40.034Z,17.99
2023-05-05T05:57:07.041Z,18.22
2023-05-05T05:59:35.318Z,18.38
2023-05-05T06:02:02.297Z,18.52
2023-05-05T06:04:29.308Z,18.53
2023-05-05T06:06:56.248Z,18.57
2023-05-05T06:09:23.161Z,18.73
2023-05-05T06:11:49.962Z,18.91
2023-05-05T06:14:18.152Z,18.99
2023-05-05T06:16:47.728Z,18.94
2023-05-05T06:19:14.624Z,18.90
2023-05-05T06:21:41.600Z,18.89
2023-05-05T06:24:08.482Z,18.88
2023-05-05T06:26:35.359Z,19.01
2023-05-05T06:29:02.222Z,18.98
2023-05-05T06:31:29.315Z,19.00
2023-05-05T06:33:57.605Z,18.94
2023-05-05T06:36:24.653Z,19.08
2023-05-05T06:38:51.655Z,18.93
2023-05-05T06:41:18.556Z,18.94
2023-05-05T06:43:45.661Z,18.93
2023-05-05T06:46:12.499Z,19.05
2023-05-05T06:48:39.530Z,19.01
2023-05-05T06:51:09.816Z,19.10
2023-05-05T06:53:36.674Z,19.27
2023-05-05T06:56:03.747Z,19.30
2023-05-05T06:58:31.656Z,19.37
2023-05-05T07:00:58.604Z,19.52
2023-05-05T07:03:26.867Z,19.51
2023-05-05T07:05:55.154Z,19.53
2023-05-05T07:08:23.369Z,19.59
2023-05-05T07:10:50.177Z,19.47
2023-05-05T07:13:17.514Z,19.44
2023-05-05T07:15:46.526Z,19.48
2023-05-05T07:18:13.580Z,19.31
2023-05-05T07:20:40.597Z,19.55
2023-05-05T07:23:07.618Z,19.69
2023-05-05T07:25:35.973Z,19.87
2023-05-05T07:28:03.113Z,20.07
2023-05-05T07:30:30.206Z,20.18
2023-05-05T07:32:57.250Z,20.26
2023-05-05T07:35:24.358Z,20.18
2023-05-05T07:37:54.110Z,19.80
2023-05-05T07:40:21.540Z,19.88
2023-05-05T07:42:52.567Z,19.98
2023-05-05T07:45:19.618Z,20.13
2023-05-05T07:47:46.595Z,20.26
2023-05-05T07:50:13.586Z,20.18
2023-05-05T07:55:10.599Z,20.45
2023-05-05T07:57:37.668Z,20.52
2023-05-05T08:00:07.493Z,20.66
2023-05-05T08:02:34.597Z,20.64
2023-05-05T08:05:01.461Z,20.61
2023-05-05T08:07:28.273Z,20.22
2023-05-05T08:09:55.290Z,20.13
2023-05-05T08:12:22.171Z,20.14
2023-05-05T08:14:49.086Z,20.49
2023-05-05T08:17:17.393Z,20.71
2023-05-05T08:19:44.208Z,21.01
2023-05-05T08:22:11.056Z,21.13
2023-05-05T08:24:37.932Z,21.45
2023-05-05T08:27:04.766Z,21.67
2023-05-05T08:29:31.555Z,21.91
2023-05-05T08:31:58.524Z,22.01
2023-05-05T08:34:26.850Z,22.18
2023-05-05T08:36:53.841Z,21.96
2023-05-05T08:39:20.686Z,21.93
2023-05-05T08:41:47.680Z,21.75
2023-05-05T08:44:14.612Z,21.76
2023-05-05T08:46:42.465Z,21.62
2023-05-05T08:49:16.092Z,21.28
2023-05-05T08:51:45.639Z,21.40
2023-05-05T08:54:19.344Z,21.47
2023-05-05T08:56:46.732Z,21.80
2023-05-05T08:59:14.695Z,21.89
2023-05-05T09:01:49.762Z,22.09
2023-05-05T09:04:19.051Z,21.77
2023-05-05T09:07:05.761Z,21.76
2023-05-05T09:09:40.402Z,21.75
2023-05-05T09:12:07.463Z,21.72
2023-05-05T09:14:46.510Z,21.61
2023-05-05T09:17:28.419Z,21.66
2023-05-05T09:20:16.375Z,21.35
2023-05-05T09:22:50.787Z,21.32
2023-05-05T09:25:23.172Z,21.09
2023-05-05T09:27:54.909Z,20.92
2023-05-05T09:30:36.098Z,21.37
2023-05-05T09:33:08.850Z,21.64
2023-05-05T09:36:05.204Z,21.40
2023-05-05T09:38:36.913Z,21.30
2023-05-05T09:41:09.006Z,21.52
2023-05-05T09:44:00.810Z,21.57
2023-05-05T09:46:31.191Z,21.84
2023-05-05T09:49:12.383Z,21.70
2023-05-05T09:51:40.484Z,21.41
2023-05-05T09:54:09.214Z,21.40
2023-05-05T09:56:42.824Z,21.78
2023-05-05T09:59:10.436Z,21.97
2023-05-05T10:01:37.930Z,21.96
2023-05-05T10:04:05.144Z,22.05
2023-05-05T10:06:42.989Z,22.13
2023-05-05T10:09:11.238Z,22.08
2023-05-05T10:11:39.621Z,22.12
2023-05-05T10:14:07.830Z,21.92
2023-05-05T10:16:36.198Z,22.18
2023-05-05T10:19:04.430Z,22.09
2023-05-05T10:21:37.446Z,21.92
2023-05-05T10:24:09.450Z,22.05
2023-05-05T10:26:40.862Z,22.35
2023-05-05T10:29:13.586Z,22.75
2023-05-05T10:31:47.158Z,22.47
2023-05-05T10:34:18.177Z,22.03
2023-05-05T10:36:45.536Z,21.83
2023-05-05T10:39:15.689Z,22.34
2023-05-05T10:41:44.729Z,22.07
2023-05-05T10:44:12.272Z,22.29
2023-05-05T10:46:39.953Z,22.52
2023-05-05T10:49:15.548Z,22.48
2023-05-05T10:51:50.025Z,22.68
2023-05-05T10:54:24.757Z,22.67
2023-05-05T10:56:54.724Z,22.84
2023-05-05T10:59:41.503Z,22.09
2023-05-05T11:02:27.315Z,21.56
2023-05-05T11:05:14.444Z,21.58
2023-05-05T11:07:42.012Z,21.64
2023-05-05T11:10:10.696Z,21.67
2023-05-05T11:13:15.359Z,21.67
2023-05-05T11:15:43.699Z,21.34
2023-05-05T11:18:34.018Z,21.71
2023-05-05T11:21:15.545Z,21.69
2023-05-05T11:23:47.545Z,21.31
2023-05-05T11:26:15.698Z,21.12
2023-05-05T11:29:02.611Z,21.01
2023-05-05T11:31:31.839Z,20.86
2023-05-05T11:34:25.003Z,20.87
2023-05-05T11:36:53.131Z,20.92
2023-05-05T11:39:25.311Z,20.75
2023-05-05T11:42:17.323Z,20.82
2023-05-05T11:44:44.300Z,21.22
2023-05-05T11:47:31.814Z,21.02
2023-05-05T11:49:59.433Z,21.29
2023-05-05T11:52:27.336Z,21.26
2023-05-05T11:54:59.773Z,21.19
2023-05-05T11:57:30.104Z,21.37
2023-05-05T12:00:00.542Z,22.40
2023-05-05T12:02:29.540Z,22.34
2023-05-05T12:04:59.173Z,22.67
2023-05-05T12:07:27.413Z,22.67
2023-05-05T12:09:55.500Z,23.50
2023-05-05T12:12:34.565Z,23.43
2023-05-05T12:15:01.507Z,23.85
2023-05-05T12:17:40.161Z,24.04
2023-05-05T12:20:10.590Z,24.34
2023-05-05T12:22:38.260Z,24.03
2023-05-05T12:25:07.045Z,24.01
2023-05-05T12:27:35.458Z,23.95
2023-05-05T12:30:14.510Z,23.85
2023-05-05T12:32:41.842Z,23.46
2023-05-05T12:35:11.209Z,23.23
2023-05-05T12:41:46.333Z,22.74
2023-05-05T12:45:59.757Z,23.66
2023-05-05T12:48:26.702Z,23.89
2023-05-05T12:51:43.552Z,23.64
2023-05-05T12:54:19.872Z,23.44
2023-05-05T12:56:47.732Z,24.02
2023-05-05T12:59:29.620Z,24.40
2023-05-05T13:01:58.468Z,24.99
2023-05-05T13:04:27.638Z,25.12
2023-05-05T13:07:11.875Z,24.48
2023-05-05T13:09:40.571Z,24.85
2023-05-05T13:12:12.442Z,24.70
2023-05-05T13:14:39.596Z,24.41
2023-05-05T13:17:06.898Z,24.42
2023-05-05T13:19:45.614Z,24.24
2023-05-05T13:22:16.007Z,24.29
2023-05-05T13:24:51.815Z,24.17
2023-05-05T13:27:20.094Z,24.38
2023-05-05T13:29:46.882Z,24.42
2023-05-05T13:32:13.753Z,24.56
2023-05-05T13:34:41.546Z,24.43
2023-05-05T13:37:08.813Z,24.68
2023-05-05T13:39:37.022Z,24.62
2023-05-05T13:42:05.587Z,24.17
2023-05-05T13:44:32.581Z,24.13
2023-05-05T13:46:59.573Z,24.06
2023-05-05T13:49:27.216Z,24.26
2023-05-05T13:51:55.228Z,24.60
2023-05-05T13:54:22.149Z,24.51
2023-05-05T13:56:49.074Z,24.43
2023-05-05T13:59:17.438Z,24.50
2023-05-05T14:01:44.224Z,24.74
2023-05-05T14:04:11.266Z,24.55
2023-05-05T14:06:38.211Z,24.11
2023-05-05T14:09:08.051Z,23.97
2023-05-05T14:11:35.054Z,24.28
2023-05-05T14:14:01.950Z,24.84
2023-05-05T14:16:30.389Z,24.84
2023-05-05T14:18:57.301Z,25.21
2023-05-05T14:21:24.225Z,25.05
2023-05-05T14:23:51.088Z,24.68
2023-05-05T14:26:17.994Z,24.68
2023-05-05T14:28:46.749Z,24.38
2023-05-05T14:31:15.259Z,24.45
2023-05-05T14:33:43.421Z,23.63
2023-05-05T14:36:10.329Z,23.91
2023-05-05T14:38:38.942Z,23.60
2023-05-05T14:41:05.975Z,24.03
2023-05-05T14:43:42.214Z,24.84
2023-05-05T14:46:26.344Z,25.10
2023-05-05T14:48:54.690Z,25.13
2023-05-05T14:54:38.290Z,24.60
2023-05-05T14:57:06.771Z,24.67
2023-05-05T14:59:33.684Z,24.45
2023-05-05T15:02:25.742Z,24.16
2023-05-05T15:04:54.048Z,24.21
2023-05-05T15:07:33.465Z,24.38
2023-05-05T15:10:00.363Z,23.88
2023-05-05T15:16:21.647Z,24.66
2023-05-05T15:18:54.124Z,24.48
2023-05-05T15:21:22.394Z,23.77
2023-05-05T15:23:49.212Z,23.91
2023-05-05T15:26:16.097Z,23.73
2023-05-05T15:28:43.007Z,23.72
2023-05-05T15:31:10.166Z,23.72
2023-05-05T15:33:37.106Z,23.49
2023-05-05T15:36:04.207Z,22.80
2023-05-05T15:39:01.153Z,22.66
2023-05-05T15:46:41.999Z,23.32
2023-05-05T15:49:10.744Z,23.33
2023-05-05T15:52:50.082Z,23.33
2023-05-05T15:55:39.224Z,23.31
2023-05-05T15:58:06.044Z,23.56
2023-05-05T16:01:04.470Z,23.67
2023-05-05T16:06:32.454Z,23.44
2023-05-05T16:08:59.378Z,23.50
2023-05-05T16:11:38.029Z,23.86
2023-05-05T16:14:06.259Z,24.03
2023-05-05T16:16:33.127Z,23.92
2023-05-05T16:19:29.661Z,23.70
2023-05-05T16:22:07.768Z,23.78
2023-05-05T16:25:19.386Z,23.73
2023-05-05T16:28:27.399Z,23.66
2023-05-05T16:35:21.074Z,24.12
2023-05-05T16:37:54.326Z,24.27
2023-05-05T16:40:31.441Z,24.06
2023-05-05T16:43:07.659Z,24.16
2023-05-05T16:46:04.133Z,24.36
2023-05-05T16:48:34.610Z,24.22
2023-05-05T16:51:25.733Z,24.06
2023-05-05T17:01:35.747Z,23.26
2023-05-05T17:04:02.895Z,23.06
2023-05-05T17:06:32.010Z,22.78
2023-05-05T17:08:59.197Z,22.84
2023-05-05T17:11:26.714Z,22.83
2023-05-05T17:13:53.792Z,22.70
2023-05-05T17:16:20.859Z,22.55
2023-05-05T17:18:49.209Z,22.36
2023-05-05T17:21:16.089Z,22.25
2023-05-05T17:23:42.932Z,22.29
2023-05-05T17:26:11.994Z,22.38
2023-05-05T17:28:38.821Z,22.43
2023-05-05T17:31:06.105Z,22.47
2023-05-05T17:33:32.947Z,22.41
2023-05-05T17:36:01.315Z,22.36
2023-05-05T17:38:28.354Z,22.32
2023-05-05T17:40:55.174Z,22.34
2023-05-05T17:43:22.197Z,22.14
2023-05-05T17:45:49.171Z,21.84
2023-05-05T17:48:16.258Z,21.84
2023-05-05T17:50:43.612Z,21.72
2023-05-05T17:53:12.581Z,21.89
2023-05-05T17:55:39.576Z,21.92
2023-05-05T17:58:06.428Z,21.78
2023-05-05T18:00:33.310Z,21.74
2023-05-05T18:03:01.267Z,21.75
2023-05-05T18:05:28.239Z,21.77
2023-05-05T18:07:55.096Z,21.69
2023-05-05T18:10:23.338Z,21.66
2023-05-05T18:12:50.336Z,21.66
2023-05-05T18:15:17.168Z,21.54
2023-05-05T18:17:44.548Z,21.43
2023-05-05T18:20:11.980Z,21.34
2023-05-05T18:22:38.953Z,21.16
2023-05-05T18:25:07.973Z,21.13
2023-05-05T18:27:36.928Z,21.05
2023-05-05T18:30:04.888Z,21.05
2023-05-05T18:32:31.894Z,20.96
2023-05-05T18:34:58.866Z,20.86
2023-05-05T18:37:25.754Z,20.73
2023-05-05T18:39:52.624Z,20.54
2023-05-05T18:42:19.477Z,20.44
2023-05-05T18:44:47.793Z,20.45
2023-05-05T18:47:14.596Z,20.45
2023-05-05T18:49:41.443Z,20.40
2023-05-05T18:52:08.294Z,20.36
2023-05-05T18:54:37.473Z,20.31
2023-05-05T18:57:04.752Z,20.21
2023-05-05T18:59:31.781Z,20.17
2023-05-05T19:02:00.134Z,20.02
2023-05-05T19:04:31.326Z,19.99
2023-05-05T19:06:58.821Z,19.99
2023-05-05T19:09:26.137Z,19.93
2023-05-05T19:11:53.034Z,19.88
2023-05-05T19:14:19.974Z,19.86
2023-05-05T19:16:47.070Z,19.78
2023-05-05T19:19:15.363Z,19.63
2023-05-05T19:21:42.201Z,19.52
2023-05-05T19:24:09.745Z,19.38
2023-05-05T19:26:36.693Z,19.32
2023-05-05T19:29:03.678Z,19.28
2023-05-05T19:31:31.382Z,19.31
2023-05-05T19:34:00.752Z,19.29
2023-05-05T19:36:31.687Z,19.19
2023-05-05T19:39:00.600Z,19.14
2023-05-05T19:41:27.496Z,18.97
2023-05-05T19:43:54.383Z,18.79
2023-05-05T19:46:21.320Z,18.65
2023-05-05T19:48:48.724Z,18.55
2023-05-05T19:51:15.638Z,18.60
2023-05-05T19:53:43.996Z,18.54
2023-05-05T19:56:11.607Z,18.53
2023-05-05T19:58:53.751Z,18.63
2023-05-05T20:01:20.785Z,18.63
2023-05-05T20:03:47.802Z,18.55
2023-05-05T20:06:14.803Z,18.55
2023-05-05T20:08:43.112Z,18.53
2023-05-05T20:11:10.046Z,18.49
2023-05-05T20:13:38.242Z,18.50
2023-05-05T20:16:06.069Z,18.46
2023-05-05T20:18:33.237Z,18.25
2023-05-05T20:21:00.414Z,18.20
2023-05-05T20:23:27.717Z,18.22
2023-05-05T20:25:56.807Z,18.12
2023-05-05T20:28:23.968Z,18.11
2023-05-05T20:30:51.060Z,17.92
2023-05-05T20:33:18.001Z,17.78
2023-05-05T20:35:44.917Z,17.60
2023-05-05T20:38:11.846Z,17.76
2023-05-05T20:40:38.883Z,17.59
2023-05-05T20:43:07.307Z,17.58
2023-05-05T20:45:34.440Z,17.47
2023-05-05T20:48:01.832Z,17.53
2023-05-05T20:50:28.788Z,17.51
2023-05-05T20:52:55.826Z,17.42
2023-05-05T20:55:22.925Z,17.27
2023-05-05T20:57:49.778Z,17.32
2023-05-05T21:00:24.102Z,17.22
2023-05-05T21:02:51.011Z,17.18
2023-05-05T21:05:18.238Z,17.12
2023-05-05T21:07:45.341Z,17.14
2023-05-05T21:10:12.438Z,17.02
2023-05-05T21:12:40.498Z,17.03
2023-05-05T21:15:08.617Z,16.98
2023-05-05T21:17:37.097Z,16.87
2023-05-05T21:20:04.499Z,16.81
2023-05-05T21:22:31.456Z,16.88
2023-05-05T21:25:11.765Z,16.86
2023-05-05T21:27:38.667Z,16.89
2023-05-05T21:30:09.407Z,16.92
2023-05-05T21:32:39.434Z,16.94
2023-05-05T21:35:07.997Z,16.97
2023-05-05T21:37:36.666Z,17.00
2023-05-05T21:40:03.878Z,16.96
2023-05-05T21:42:30.965Z,17.03
2023-05-05T21:44:57.751Z,17.05
2023-05-05T21:47:24.948Z,17.15
2023-05-05T21:49:53.162Z,17.04
2023-05-05T21:52:20.098Z,17.10
2023-05-05T21:54:46.955Z,17.15
2023-05-05T21:57:13.817Z,17.17
2023-05-05T21:59:41.352Z,17.15
2023-05-05T22:02:08.185Z,17.22
2023-05-05T22:04:35.090Z,17.14
2023-05-05T22:07:03.324Z,17.21
2023-05-05T22:09:30.278Z,17.30
2023-05-05T22:11:57.510Z,17.47
2023-05-05T22:14:24.460Z,17.55
2023-05-05T22:16:51.398Z,17.70
2023-05-05T22:19:18.221Z,17.74
2023-05-05T22:21:45.090Z,17.79
2023-05-05T22:24:13.388Z,17.75
2023-05-05T22:26:43.364Z,17.71
2023-05-05T22:29:10.677Z,17.62
2023-05-05T22:31:37.799Z,17.61
2023-05-05T22:34:04.860Z,17.65
2023-05-05T22:36:31.838Z,17.58
2023-05-05T22:38:59.079Z,17.41
2023-05-05T22:41:27.296Z,17.24
2023-05-05T22:43:54.190Z,17.09
2023-05-05T22:46:21.062Z,17.03
2023-05-05T22:48:48.001Z,16.97
2023-05-05T22:51:14.856Z,16.92
2023-05-05T22:53:41.830Z,16.84
2023-05-05T22:56:08.772Z,16.73
2023-05-05T22:58:37.044Z,16.68
2023-05-05T23:01:04.200Z,16.67
2023-05-05T23:03:31.133Z,16.71
2023-05-05T23:05:57.999Z,16.73
2023-05-05T23:08:24.829Z,16.71
2023-05-05T23:10:51.695Z,16.55
2023-05-05T23:13:18.551Z,16.61
2023-05-05T23:15:46.926Z,16.57
2023-05-05T23:18:13.779Z,16.55
2023-05-05T23:20:40.793Z,16.48
2023-05-05T23:23:07.712Z,16.44
2023-05-05T23:25:34.616Z,16.32
2023-05-05T23:28:01.551Z,16.29
2023-05-05T23:30:28.662Z,16.34
2023-05-05T23:32:58.258Z,16.24
2023-05-05T23:35:26.540Z,16.19
2023-05-05T23:37:53.368Z,16.16
2023-05-05T23:40:20.404Z,16.15
2023-05-05T23:42:47.205Z,16.06
2023-05-05T23:45:14.070Z,15.99
2023-05-05T23:47:40.937Z,15.90
2023-05-05T23:50:10.036Z,15.88
2023-05-05T23:52:36.910Z,15.75
2023-05-05T23:55:04.196Z,15.76
2023-05-05T23:57:31.090Z,15.70
2023-05-05T23:59:58.370Z,15.68
